sensor_id;sensor_type;location;lat;lon;timestamp;temperature;humidity
46492;DHT22;32206;51.446;6.792;2023-04-03T00:01:30;2.80;99.90
46492;DHT22;32206;51.446;6.792;2023-04-03T00:03:56;2.80;99.90
46492;DHT22;32206;51.446;6.792;2023-04-03T00:06:23;2.70;99.90
46492;DHT22;32206;51.446;6.792;2023-04-03T00:08:49;2.70;99.90
46492;DHT22;32206;51.446;6.792;2023-04-03T00:11:15;2.70;99.90
46492;DHT22;32206;51.446;6.792;2023-04-03T00:20:21;2.60;99.90
46492;DHT22;32206;51.446;6.792;2023-04-03T00:22:47;2.80;99.90
46492;DHT22;32206;51.446;6.792;2023-04-03T00:25:13;2.60;99.90
46492;DHT22;32206;51.446;6.792;2023-04-03T00:27:40;2.70;99.90
46492;DHT22;32206;51.446;6.792;2023-04-03T00:33:28;2.60;99.90
46492;DHT22;32206;51.446;6.792;2023-04-03T00:35:53;2.60;99.90
46492;DHT22;32206;51.446;6.792;2023-04-03T00:38:19;2.70;99.90
46492;DHT22;32206;51.446;6.792;2023-04-03T00:40:47;2.60;99.90
46492;DHT22;32206;51.446;6.792;2023-04-03T00:46:35;2.50;99.90
46492;DHT22;32206;51.446;6.792;2023-04-03T00:49:01;2.40;99.90
46492;DHT22;32206;51.446;6.792;2023-04-03T00:51:26;2.70;99.90
46492;DHT22;32206;51.446;6.792;2023-04-03T00:53:56;2.40;99.90
46492;DHT22;32206;51.446;6.792;2023-04-03T00:56:25;2.30;99.90
46492;DHT22;32206;51.446;6.792;2023-04-03T00:58:59;2.30;99.90
46492;DHT22;32206;51.446;6.792;2023-04-03T01:01:28;2.20;99.90
46492;DHT22;32206;51.446;6.792;2023-04-03T01:03:54;2.30;99.90
46492;DHT22;32206;51.446;6.792;2023-04-03T01:06:38;2.20;99.90
46492;DHT22;32206;51.446;6.792;2023-04-03T01:09:04;2.20;99.90
46492;DHT22;32206;51.446;6.792;2023-04-03T01:11:30;2.20;99.90
46492;DHT22;32206;51.446;6.792;2023-04-03T01:13:56;2.20;99.90
46492;DHT22;32206;51.446;6.792;2023-04-03T01:16:22;2.20;99.90
46492;DHT22;32206;51.446;6.792;2023-04-03T01:18:47;2.10;99.90
46492;DHT22;32206;51.446;6.792;2023-04-03T01:27:57;2.10;99.90
46492;DHT22;32206;51.446;6.792;2023-04-03T01:30:28;2.00;99.90
46492;DHT22;32206;51.446;6.792;2023-04-03T01:32:56;2.00;99.90
46492;DHT22;32206;51.446;6.792;2023-04-03T01:35:22;2.00;99.90
46492;DHT22;32206;51.446;6.792;2023-04-03T01:37:48;2.00;99.90
46492;DHT22;32206;51.446;6.792;2023-04-03T01:40:14;2.00;99.90
46492;DHT22;32206;51.446;6.792;2023-04-03T01:42:39;1.90;99.90
46492;DHT22;32206;51.446;6.792;2023-04-03T01:48:27;1.80;99.90
46492;DHT22;32206;51.446;6.792;2023-04-03T01:50:54;1.80;99.90
46492;DHT22;32206;51.446;6.792;2023-04-03T02:00:04;1.80;99.90
46492;DHT22;32206;51.446;6.792;2023-04-03T02:02:30;1.70;99.90
46492;DHT22;32206;51.446;6.792;2023-04-03T02:04:56;1.60;99.90
46492;DHT22;32206;51.446;6.792;2023-04-03T02:07:22;1.60;99.90
46492;DHT22;32206;51.446;6.792;2023-04-03T02:09:47;1.60;99.90
46492;DHT22;32206;51.446;6.792;2023-04-03T02:12:13;1.60;99.90
46492;DHT22;32206;51.446;6.792;2023-04-03T02:14:38;1.60;99.90
46492;DHT22;32206;51.446;6.792;2023-04-03T02:17:04;1.60;99.90
46492;DHT22;32206;51.446;6.792;2023-04-03T02:19:36;1.70;99.90
46492;DHT22;32206;51.446;6.792;2023-04-03T02:22:03;1.50;99.90
46492;DHT22;32206;51.446;6.792;2023-04-03T02:24:29;1.50;99.90
46492;DHT22;32206;51.446;6.792;2023-04-03T02:26:54;1.50;99.90
46492;DHT22;32206;51.446;6.792;2023-04-03T02:29:20;1.70;99.90
46492;DHT22;32206;51.446;6.792;2023-04-03T02:31:46;1.50;99.90
46492;DHT22;32206;51.446;6.792;2023-04-03T02:37:34;1.40;99.90
46492;DHT22;32206;51.446;6.792;2023-04-03T02:40:00;1.40;99.90
46492;DHT22;32206;51.446;6.792;2023-04-03T02:42:26;1.40;99.90
46492;DHT22;32206;51.446;6.792;2023-04-03T02:44:52;1.40;99.90
46492;DHT22;32206;51.446;6.792;2023-04-03T02:47:17;1.40;99.90
46492;DHT22;32206;51.446;6.792;2023-04-03T02:49:43;1.40;99.90
46492;DHT22;32206;51.446;6.792;2023-04-03T02:52:12;1.40;99.90
46492;DHT22;32206;51.446;6.792;2023-04-03T02:54:38;1.40;99.90
46492;DHT22;32206;51.446;6.792;2023-04-03T02:57:04;1.40;99.90
46492;DHT22;32206;51.446;6.792;2023-04-03T02:59:30;1.40;99.90
46492;DHT22;32206;51.446;6.792;2023-04-03T03:01:56;1.50;99.90
46492;DHT22;32206;51.446;6.792;2023-04-03T03:04:22;1.50;99.90
46492;DHT22;32206;51.446;6.792;2023-04-03T03:06:57;1.50;99.90
46492;DHT22;32206;51.446;6.792;2023-04-03T03:09:22;1.50;99.90
46492;DHT22;32206;51.446;6.792;2023-04-03T03:11:48;1.50;99.90
46492;DHT22;32206;51.446;6.792;2023-04-03T03:14:13;1.50;99.90
46492;DHT22;32206;51.446;6.792;2023-04-03T03:20:03;1.50;99.90
46492;DHT22;32206;51.446;6.792;2023-04-03T03:22:29;1.50;99.90
46492;DHT22;32206;51.446;6.792;2023-04-03T03:24:54;1.50;99.90
46492;DHT22;32206;51.446;6.792;2023-04-03T03:27:20;1.50;99.90
46492;DHT22;32206;51.446;6.792;2023-04-03T03:29:46;1.50;99.90
46492;DHT22;32206;51.446;6.792;2023-04-03T03:32:12;1.50;99.90
46492;DHT22;32206;51.446;6.792;2023-04-03T03:34:38;1.50;99.90
46492;DHT22;32206;51.446;6.792;2023-04-03T03:43:47;1.60;99.90
46492;DHT22;32206;51.446;6.792;2023-04-03T03:49:35;1.80;99.90
46492;DHT22;32206;51.446;6.792;2023-04-03T03:52:01;1.90;99.90
46492;DHT22;32206;51.446;6.792;2023-04-03T03:54:26;1.90;99.90
46492;DHT22;32206;51.446;6.792;2023-04-03T03:56:52;2.00;99.90
46492;DHT22;32206;51.446;6.792;2023-04-03T03:59:18;2.10;99.90
46492;DHT22;32206;51.446;6.792;2023-04-03T04:05:21;1.90;99.90
46492;DHT22;32206;51.446;6.792;2023-04-03T04:07:47;2.00;99.90
46492;DHT22;32206;51.446;6.792;2023-04-03T04:13:52;1.90;99.90
46492;DHT22;32206;51.446;6.792;2023-04-03T04:16:18;1.90;99.90
46492;DHT22;32206;51.446;6.792;2023-04-03T04:18:44;1.90;99.90
46492;DHT22;32206;51.446;6.792;2023-04-03T04:21:09;1.90;99.90
46492;DHT22;32206;51.446;6.792;2023-04-03T04:27:25;1.90;99.90
46492;DHT22;32206;51.446;6.792;2023-04-03T04:29:51;2.00;99.90
46492;DHT22;32206;51.446;6.792;2023-04-03T04:32:28;2.00;99.90
46492;DHT22;32206;51.446;6.792;2023-04-03T04:34:54;2.10;99.90
46492;DHT22;32206;51.446;6.792;2023-04-03T04:44:04;2.00;99.90
46492;DHT22;32206;51.446;6.792;2023-04-03T04:49:33;2.00;99.90
46492;DHT22;32206;51.446;6.792;2023-04-03T04:51:59;2.40;99.90
46492;DHT22;32206;51.446;6.792;2023-04-03T04:54:24;2.10;99.00
46492;DHT22;32206;51.446;6.792;2023-04-03T04:56:50;2.10;99.10
46492;DHT22;32206;51.446;6.792;2023-04-03T04:59:16;2.00;99.70
46492;DHT22;32206;51.446;6.792;2023-04-03T05:08:26;2.00;99.90
46492;DHT22;32206;51.446;6.792;2023-04-03T05:14:14;2.00;99.90
46492;DHT22;32206;51.446;6.792;2023-04-03T05:23:24;2.00;99.90
46492;DHT22;32206;51.446;6.792;2023-04-03T05:25:50;2.10;99.90
46492;DHT22;32206;51.446;6.792;2023-04-03T05:28:15;2.00;99.90
46492;DHT22;32206;51.446;6.792;2023-04-03T05:30:41;2.00;99.90
46492;DHT22;32206;51.446;6.792;2023-04-03T05:33:07;2.10;99.90
46492;DHT22;32206;51.446;6.792;2023-04-03T05:38:58;2.10;99.90
46492;DHT22;32206;51.446;6.792;2023-04-03T05:41:23;2.20;99.90
46492;DHT22;32206;51.446;6.792;2023-04-03T05:47:12;2.20;99.50
46492;DHT22;32206;51.446;6.792;2023-04-03T05:49:38;2.20;98.50
46492;DHT22;32206;51.446;6.792;2023-04-03T05:52:11;2.30;98.20
46492;DHT22;32206;51.446;6.792;2023-04-03T05:54:42;2.30;97.40
46492;DHT22;32206;51.446;6.792;2023-04-03T05:57:09;2.30;97.30
46492;DHT22;32206;51.446;6.792;2023-04-03T05:59:35;2.40;96.20
46492;DHT22;32206;51.446;6.792;2023-04-03T06:02:01;2.40;94.60
46492;DHT22;32206;51.446;6.792;2023-04-03T06:04:27;2.50;94.90
46492;DHT22;32206;51.446;6.792;2023-04-03T06:06:55;2.50;94.20
46492;DHT22;32206;51.446;6.792;2023-04-03T06:16:05;2.60;92.20
46492;DHT22;32206;51.446;6.792;2023-04-03T06:18:31;2.60;92.40
46492;DHT22;32206;51.446;6.792;2023-04-03T06:20:56;2.70;91.40
46492;DHT22;32206;51.446;6.792;2023-04-03T06:23:24;2.60;91.60
46492;DHT22;32206;51.446;6.792;2023-04-03T06:25:50;2.70;90.80
46492;DHT22;32206;51.446;6.792;2023-04-03T06:28:16;2.70;91.40
46492;DHT22;32206;51.446;6.792;2023-04-03T06:30:41;2.80;86.20
46492;DHT22;32206;51.446;6.792;2023-04-03T06:36:57;2.80;80.10
46492;DHT22;32206;51.446;6.792;2023-04-03T06:39:23;2.90;84.30
46492;DHT22;32206;51.446;6.792;2023-04-03T06:41:49;3.00;81.70
46492;DHT22;32206;51.446;6.792;2023-04-03T06:44:16;3.10;76.90
46492;DHT22;32206;51.446;6.792;2023-04-03T06:46:43;3.10;76.30
46492;DHT22;32206;51.446;6.792;2023-04-03T06:49:09;3.10;72.20
46492;DHT22;32206;51.446;6.792;2023-04-03T06:51:35;3.20;67.40
46492;DHT22;32206;51.446;6.792;2023-04-03T06:54:02;3.20;63.80
46492;DHT22;32206;51.446;6.792;2023-04-03T06:56:28;3.20;64.10
46492;DHT22;32206;51.446;6.792;2023-04-03T06:58:55;3.30;64.70
46492;DHT22;32206;51.446;6.792;2023-04-03T07:04:44;3.40;53.60
46492;DHT22;32206;51.446;6.792;2023-04-03T07:07:10;3.50;51.30
46492;DHT22;32206;51.446;6.792;2023-04-03T07:09:36;3.60;48.80
46492;DHT22;32206;51.446;6.792;2023-04-03T07:12:02;3.60;47.80
46492;DHT22;32206;51.446;6.792;2023-04-03T07:14:27;3.70;48.70
46492;DHT22;32206;51.446;6.792;2023-04-03T07:16:53;3.90;48.80
46492;DHT22;32206;51.446;6.792;2023-04-03T07:22:41;4.00;23.20
46492;DHT22;32206;51.446;6.792;2023-04-03T07:25:07;4.10;20.50
46492;DHT22;32206;51.446;6.792;2023-04-03T07:27:33;4.10;11.40
46492;DHT22;32206;51.446;6.792;2023-04-03T07:29:59;4.20;2.60
46492;DHT22;32206;51.446;6.792;2023-04-03T07:32:25;4.30;1.00
46492;DHT22;32206;51.446;6.792;2023-04-03T07:34:51;4.20;1.00
46492;DHT22;32206;51.446;6.792;2023-04-03T07:37:16;4.20;1.00
46492;DHT22;32206;51.446;6.792;2023-04-03T07:39:46;4.30;1.00
46492;DHT22;32206;51.446;6.792;2023-04-03T07:42:11;4.40;1.00
46492;DHT22;32206;51.446;6.792;2023-04-03T07:44:37;4.50;1.00
46492;DHT22;32206;51.446;6.792;2023-04-03T07:47:03;4.40;1.00
46492;DHT22;32206;51.446;6.792;2023-04-03T07:49:29;4.40;1.00
46492;DHT22;32206;51.446;6.792;2023-04-03T07:51:55;4.60;1.00
46492;DHT22;32206;51.446;6.792;2023-04-03T07:54:21;4.60;1.00
46492;DHT22;32206;51.446;6.792;2023-04-03T07:56:46;4.70;1.00
46492;DHT22;32206;51.446;6.792;2023-04-03T07:59:12;4.70;1.00
46492;DHT22;32206;51.446;6.792;2023-04-03T08:08:23;4.90;1.00
46492;DHT22;32206;51.446;6.792;2023-04-03T08:10:52;5.10;1.00
46492;DHT22;32206;51.446;6.792;2023-04-03T08:13:19;5.10;1.00
46492;DHT22;32206;51.446;6.792;2023-04-03T08:15:45;5.20;1.00
46492;DHT22;32206;51.446;6.792;2023-04-03T08:18:10;5.40;1.00
46492;DHT22;32206;51.446;6.792;2023-04-03T08:23:58;5.50;99.90
46492;DHT22;32206;51.446;6.792;2023-04-03T08:26:24;5.70;99.90
46492;DHT22;32206;51.446;6.792;2023-04-03T08:28:51;5.70;99.90
46492;DHT22;32206;51.446;6.792;2023-04-03T08:31:18;5.80;99.90
46492;DHT22;32206;51.446;6.792;2023-04-03T08:33:46;5.80;65.90
46492;DHT22;32206;51.446;6.792;2023-04-03T08:36:25;5.80;99.90
46492;DHT22;32206;51.446;6.792;2023-04-03T08:38:55;5.80;1.00
46492;DHT22;32206;51.446;6.792;2023-04-03T08:48:15;5.90;92.60
46492;DHT22;32206;51.446;6.792;2023-04-03T08:50:47;6.10;99.90
46492;DHT22;32206;51.446;6.792;2023-04-03T08:53:20;6.20;1.00
46492;DHT22;32206;51.446;6.792;2023-04-03T08:55:48;6.50;1.00
46492;DHT22;32206;51.446;6.792;2023-04-03T08:58:33;6.40;22.10
46492;DHT22;32206;51.446;6.792;2023-04-03T09:01:21;6.50;99.90
46492;DHT22;32206;51.446;6.792;2023-04-03T09:03:48;6.70;74.50
46492;DHT22;32206;51.446;6.792;2023-04-03T09:06:29;6.70;55.80
46492;DHT22;32206;51.446;6.792;2023-04-03T09:09:23;6.80;99.90
46492;DHT22;32206;51.446;6.792;2023-04-03T09:18:39;7.00;99.90
46492;DHT22;32206;51.446;6.792;2023-04-03T09:21:30;7.60;99.90
46492;DHT22;32206;51.446;6.792;2023-04-03T09:23:59;7.20;99.90
46492;DHT22;32206;51.446;6.792;2023-04-03T09:26:30;7.20;1.00
46492;DHT22;32206;51.446;6.792;2023-04-03T09:29:02;7.30;1.00
46492;DHT22;32206;51.446;6.792;2023-04-03T09:31:39;7.40;1.00
46492;DHT22;32206;51.446;6.792;2023-04-03T09:36:45;7.40;99.90
46492;DHT22;32206;51.446;6.792;2023-04-03T09:39:17;7.50;99.90
46492;DHT22;32206;51.446;6.792;2023-04-03T09:42:05;7.70;99.90
46492;DHT22;32206;51.446;6.792;2023-04-03T09:44:38;7.80;99.90
46492;DHT22;32206;51.446;6.792;2023-04-03T09:47:25;8.00;99.90
46492;DHT22;32206;51.446;6.792;2023-04-03T09:56:32;8.10;99.90
46492;DHT22;32206;51.446;6.792;2023-04-03T10:02:38;8.20;99.90
46492;DHT22;32206;51.446;6.792;2023-04-03T10:08:30;8.50;99.90
46492;DHT22;32206;51.446;6.792;2023-04-03T10:11:14;8.50;99.90
46492;DHT22;32206;51.446;6.792;2023-04-03T10:14:01;8.90;99.90
46492;DHT22;32206;51.446;6.792;2023-04-03T10:20:03;9.00;99.90
46492;DHT22;32206;51.446;6.792;2023-04-03T10:25:21;9.10;99.90
46492;DHT22;32206;51.446;6.792;2023-04-03T10:28:09;9.20;99.90
46492;DHT22;32206;51.446;6.792;2023-04-03T10:30:55;9.20;99.90
46492;DHT22;32206;51.446;6.792;2023-04-03T10:57:08;10.00;99.90
46492;DHT22;32206;51.446;6.792;2023-04-03T10:59:38;10.20;99.90
46492;DHT22;32206;51.446;6.792;2023-04-03T11:02:23;10.20;99.90
46492;DHT22;32206;51.446;6.792;2023-04-03T11:04:53;10.30;99.90
46492;DHT22;32206;51.446;6.792;2023-04-03T11:10:45;10.60;99.90
46492;DHT22;32206;51.446;6.792;2023-04-03T11:13:49;10.80;99.90
46492;DHT22;32206;51.446;6.792;2023-04-03T11:16:26;10.90;99.90
46492;DHT22;32206;51.446;6.792;2023-04-03T11:19:10;10.90;99.90
46492;DHT22;32206;51.446;6.792;2023-04-03T11:21:44;10.80;99.90
46492;DHT22;32206;51.446;6.792;2023-04-03T11:24:24;10.90;99.90
46492;DHT22;32206;51.446;6.792;2023-04-03T11:26:51;11.10;99.90
46492;DHT22;32206;51.446;6.792;2023-04-03T11:29:27;11.30;99.90
46492;DHT22;32206;51.446;6.792;2023-04-03T11:34:47;11.30;99.90
46492;DHT22;32206;51.446;6.792;2023-04-03T11:40:35;11.60;99.90
46492;DHT22;32206;51.446;6.792;2023-04-03T11:50:05;12.10;99.90
46492;DHT22;32206;51.446;6.792;2023-04-03T12:28:05;13.70;34.20
46492;DHT22;32206;51.446;6.792;2023-04-03T12:30:31;13.70;23.40
46492;DHT22;32206;51.446;6.792;2023-04-03T12:35:44;13.60;29.80
46492;DHT22;32206;51.446;6.792;2023-04-03T12:41:46;13.80;21.20
46492;DHT22;32206;51.446;6.792;2023-04-03T12:47:23;14.20;26.30
46492;DHT22;32206;51.446;6.792;2023-04-03T12:49:52;14.20;18.20
46492;DHT22;32206;51.446;6.792;2023-04-03T12:58:43;14.80;7.00
46492;DHT22;32206;51.446;6.792;2023-04-03T13:01:17;14.80;1.30
46492;DHT22;32206;51.446;6.792;2023-04-03T13:03:45;14.70;1.00
46492;DHT22;32206;51.446;6.792;2023-04-03T13:06:22;14.50;1.00
46492;DHT22;32206;51.446;6.792;2023-04-03T13:08:53;14.60;1.00
46492;DHT22;32206;51.446;6.792;2023-04-03T13:11:21;14.40;1.00
46492;DHT22;32206;51.446;6.792;2023-04-03T13:20:34;14.40;1.00
46492;DHT22;32206;51.446;6.792;2023-04-03T13:23:05;14.30;1.00
46492;DHT22;32206;51.446;6.792;2023-04-03T13:25:36;14.50;1.00
46492;DHT22;32206;51.446;6.792;2023-04-03T13:28:06;14.70;1.00
46492;DHT22;32206;51.446;6.792;2023-04-03T13:30:35;14.90;1.00
46492;DHT22;32206;51.446;6.792;2023-04-03T13:33:06;15.10;1.00
46492;DHT22;32206;51.446;6.792;2023-04-03T13:35:43;15.20;1.00
46492;DHT22;32206;51.446;6.792;2023-04-03T13:38:29;15.30;1.00
46492;DHT22;32206;51.446;6.792;2023-04-03T13:41:02;15.40;1.00
46492;DHT22;32206;51.446;6.792;2023-04-03T13:43:33;15.40;1.00
46492;DHT22;32206;51.446;6.792;2023-04-03T13:49:37;15.10;1.00
46492;DHT22;32206;51.446;6.792;2023-04-03T13:56:04;15.00;1.00
46492;DHT22;32206;51.446;6.792;2023-04-03T13:58:33;15.20;1.00
46492;DHT22;32206;51.446;6.792;2023-04-03T14:04:26;15.40;1.00
46492;DHT22;32206;51.446;6.792;2023-04-03T14:10:16;15.30;1.00
46492;DHT22;32206;51.446;6.792;2023-04-03T14:12:42;15.40;1.00
46492;DHT22;32206;51.446;6.792;2023-04-03T14:28:33;15.90;1.00
46492;DHT22;32206;51.446;6.792;2023-04-03T14:30:58;15.90;1.00
46492;DHT22;32206;51.446;6.792;2023-04-03T14:33:24;15.90;1.00
46492;DHT22;32206;51.446;6.792;2023-04-03T14:35:52;16.00;1.00
46492;DHT22;32206;51.446;6.792;2023-04-03T14:38:24;16.30;1.00
46492;DHT22;32206;51.446;6.792;2023-04-03T14:40:51;16.60;1.00
46492;DHT22;32206;51.446;6.792;2023-04-03T14:43:18;16.50;1.00
46492;DHT22;32206;51.446;6.792;2023-04-03T14:49:20;16.10;1.00
46492;DHT22;32206;51.446;6.792;2023-04-03T14:51:47;16.40;1.00
46492;DHT22;32206;51.446;6.792;2023-04-03T14:57:35;17.00;1.00
46492;DHT22;32206;51.446;6.792;2023-04-03T15:00:01;17.30;1.00
46492;DHT22;32206;51.446;6.792;2023-04-03T15:02:33;17.90;1.00
46492;DHT22;32206;51.446;6.792;2023-04-03T15:05:00;17.40;1.00
46492;DHT22;32206;51.446;6.792;2023-04-03T15:07:28;17.00;1.00
46492;DHT22;32206;51.446;6.792;2023-04-03T15:09:55;16.60;1.00
46492;DHT22;32206;51.446;6.792;2023-04-03T15:12:25;16.60;1.00
46492;DHT22;32206;51.446;6.792;2023-04-03T15:14:51;16.70;1.00
46492;DHT22;32206;51.446;6.792;2023-04-03T15:17:21;17.30;1.00
46492;DHT22;32206;51.446;6.792;2023-04-03T15:19:46;17.90;1.00
46492;DHT22;32206;51.446;6.792;2023-04-03T15:22:17;19.70;1.00
46492;DHT22;32206;51.446;6.792;2023-04-03T15:24:43;19.70;1.00
46492;DHT22;32206;51.446;6.792;2023-04-03T15:27:10;18.60;1.00
46492;DHT22;32206;51.446;6.792;2023-04-03T15:29:37;18.60;1.00
46492;DHT22;32206;51.446;6.792;2023-04-03T15:35:28;20.80;1.00
46492;DHT22;32206;51.446;6.792;2023-04-03T15:37:53;22.20;1.00
46492;DHT22;32206;51.446;6.792;2023-04-03T15:40:19;23.30;1.00
46492;DHT22;32206;51.446;6.792;2023-04-03T15:42:44;24.90;1.00
46492;DHT22;32206;51.446;6.792;2023-04-03T15:45:10;27.50;1.00
46492;DHT22;32206;51.446;6.792;2023-04-03T15:47:36;29.90;1.00
46492;DHT22;32206;51.446;6.792;2023-04-03T15:50:02;31.30;1.00
46492;DHT22;32206;51.446;6.792;2023-04-03T15:52:31;32.60;1.00
46492;DHT22;32206;51.446;6.792;2023-04-03T15:54:56;33.20;1.00
46492;DHT22;32206;51.446;6.792;2023-04-03T15:57:22;33.60;1.00
46492;DHT22;32206;51.446;6.792;2023-04-03T15:59:51;33.70;1.00
46492;DHT22;32206;51.446;6.792;2023-04-03T16:05:42;33.60;1.00
46492;DHT22;32206;51.446;6.792;2023-04-03T16:08:08;33.20;1.00
46492;DHT22;32206;51.446;6.792;2023-04-03T16:10:35;30.00;1.00
46492;DHT22;32206;51.446;6.792;2023-04-03T16:13:02;26.80;1.00
46492;DHT22;32206;51.446;6.792;2023-04-03T16:15:28;25.10;1.00
46492;DHT22;32206;51.446;6.792;2023-04-03T16:21:17;22.50;1.00
46492;DHT22;32206;51.446;6.792;2023-04-03T16:23:52;20.60;1.00
46492;DHT22;32206;51.446;6.792;2023-04-03T16:26:17;20.30;1.00
46492;DHT22;32206;51.446;6.792;2023-04-03T16:28:44;19.90;1.00
46492;DHT22;32206;51.446;6.792;2023-04-03T16:31:44;20.10;1.00
46492;DHT22;32206;51.446;6.792;2023-04-03T16:34:09;19.70;1.00
46492;DHT22;32206;51.446;6.792;2023-04-03T16:36:35;20.00;1.00
46492;DHT22;32206;51.446;6.792;2023-04-03T16:39:03;21.00;1.00
46492;DHT22;32206;51.446;6.792;2023-04-03T16:41:28;21.40;1.00
46492;DHT22;32206;51.446;6.792;2023-04-03T16:43:54;21.20;1.00
46492;DHT22;32206;51.446;6.792;2023-04-03T16:49:42;22.90;1.00
46492;DHT22;32206;51.446;6.792;2023-04-03T16:52:08;21.50;1.00
46492;DHT22;32206;51.446;6.792;2023-04-03T16:54:33;20.20;1.00
46492;DHT22;32206;51.446;6.792;2023-04-03T16:56:59;20.10;1.00
46492;DHT22;32206;51.446;6.792;2023-04-03T16:59:25;21.60;1.00
46492;DHT22;32206;51.446;6.792;2023-04-03T17:01:50;21.10;1.00
46492;DHT22;32206;51.446;6.792;2023-04-03T17:04:16;22.30;1.00
46492;DHT22;32206;51.446;6.792;2023-04-03T17:06:42;24.40;1.00
46492;DHT22;32206;51.446;6.792;2023-04-03T17:09:08;25.20;1.00
46492;DHT22;32206;51.446;6.792;2023-04-03T17:11:34;25.00;1.00
46492;DHT22;32206;51.446;6.792;2023-04-03T17:14:00;22.20;1.00
46492;DHT22;32206;51.446;6.792;2023-04-03T17:16:26;18.90;1.00
46492;DHT22;32206;51.446;6.792;2023-04-03T17:29:03;12.40;1.00
46492;DHT22;32206;51.446;6.792;2023-04-03T17:31:29;11.70;1.00
46492;DHT22;32206;51.446;6.792;2023-04-03T17:33:55;11.30;1.00
46492;DHT22;32206;51.446;6.792;2023-04-03T17:36:21;11.00;1.00
46492;DHT22;32206;51.446;6.792;2023-04-03T17:38:46;10.70;1.00
46492;DHT22;32206;51.446;6.792;2023-04-03T17:44:35;10.40;1.00
46492;DHT22;32206;51.446;6.792;2023-04-03T17:50:22;10.10;1.00
46492;DHT22;32206;51.446;6.792;2023-04-03T17:52:48;9.90;1.00
46492;DHT22;32206;51.446;6.792;2023-04-03T18:01:52;9.30;1.00
46492;DHT22;32206;51.446;6.792;2023-04-03T18:07:40;9.10;1.00
46492;DHT22;32206;51.446;6.792;2023-04-03T18:10:07;8.90;1.00
46492;DHT22;32206;51.446;6.792;2023-04-03T18:12:34;8.80;1.00
46492;DHT22;32206;51.446;6.792;2023-04-03T18:15:00;8.70;1.00
46492;DHT22;32206;51.446;6.792;2023-04-03T18:17:27;8.50;1.00
46492;DHT22;32206;51.446;6.792;2023-04-03T18:19:53;8.40;1.00
46492;DHT22;32206;51.446;6.792;2023-04-03T18:22:20;8.60;1.00
46492;DHT22;32206;51.446;6.792;2023-04-03T18:24:51;8.30;1.00
46492;DHT22;32206;51.446;6.792;2023-04-03T18:27:20;8.30;1.00
46492;DHT22;32206;51.446;6.792;2023-04-03T18:29:49;8.20;13.60
46492;DHT22;32206;51.446;6.792;2023-04-03T18:32:18;8.20;40.30
46492;DHT22;32206;51.446;6.792;2023-04-03T18:44:59;7.90;45.10
46492;DHT22;32206;51.446;6.792;2023-04-03T18:47:27;7.90;59.60
46492;DHT22;32206;51.446;6.792;2023-04-03T18:49:53;7.80;56.80
46492;DHT22;32206;51.446;6.792;2023-04-03T18:52:19;7.80;73.40
46492;DHT22;32206;51.446;6.792;2023-04-03T18:54:45;7.70;99.90
46492;DHT22;32206;51.446;6.792;2023-04-03T18:57:11;7.60;99.90
46492;DHT22;32206;51.446;6.792;2023-04-03T18:59:36;7.60;99.90
46492;DHT22;32206;51.446;6.792;2023-04-03T19:02:04;7.60;99.90
46492;DHT22;32206;51.446;6.792;2023-04-03T19:04:30;7.60;99.90
46492;DHT22;32206;51.446;6.792;2023-04-03T19:06:56;7.50;99.90
46492;DHT22;32206;51.446;6.792;2023-04-03T19:09:22;7.50;99.90
46492;DHT22;32206;51.446;6.792;2023-04-03T19:11:47;7.50;99.90
46492;DHT22;32206;51.446;6.792;2023-04-03T19:14:13;7.40;99.90
46492;DHT22;32206;51.446;6.792;2023-04-03T19:16:39;7.40;99.90
46492;DHT22;32206;51.446;6.792;2023-04-03T19:19:04;7.30;99.90
46492;DHT22;32206;51.446;6.792;2023-04-03T19:21:30;7.30;99.90
46492;DHT22;32206;51.446;6.792;2023-04-03T19:23:56;7.30;99.90
46492;DHT22;32206;51.446;6.792;2023-04-03T19:26:24;7.30;99.90
46492;DHT22;32206;51.446;6.792;2023-04-03T19:28:50;7.20;99.90
46492;DHT22;32206;51.446;6.792;2023-04-03T19:31:19;7.30;99.90
46492;DHT22;32206;51.446;6.792;2023-04-03T19:33:46;7.20;99.90
46492;DHT22;32206;51.446;6.792;2023-04-03T19:36:12;7.10;99.90
46492;DHT22;32206;51.446;6.792;2023-04-03T19:38:38;7.10;99.90
46492;DHT22;32206;51.446;6.792;2023-04-03T19:47:49;7.00;99.90
46492;DHT22;32206;51.446;6.792;2023-04-03T19:50:15;6.90;99.90
46492;DHT22;32206;51.446;6.792;2023-04-03T19:52:40;6.90;99.90
46492;DHT22;32206;51.446;6.792;2023-04-03T19:55:07;6.80;1.00
46492;DHT22;32206;51.446;6.792;2023-04-03T19:57:32;6.80;1.00
46492;DHT22;32206;51.446;6.792;2023-04-03T19:59:58;6.80;1.00
46492;DHT22;32206;51.446;6.792;2023-04-03T20:02:24;6.70;1.00
46492;DHT22;32206;51.446;6.792;2023-04-03T20:14:56;6.60;1.00
46492;DHT22;32206;51.446;6.792;2023-04-03T20:17:22;6.60;1.00
46492;DHT22;32206;51.446;6.792;2023-04-03T20:19:48;6.60;1.00
46492;DHT22;32206;51.446;6.792;2023-04-03T20:22:15;6.50;1.00
46492;DHT22;32206;51.446;6.792;2023-04-03T20:24:40;6.70;1.00
46492;DHT22;32206;51.446;6.792;2023-04-03T20:30:29;6.40;1.00
46492;DHT22;32206;51.446;6.792;2023-04-03T20:32:54;6.40;1.00
46492;DHT22;32206;51.446;6.792;2023-04-03T20:35:20;6.30;43.80
46492;DHT22;32206;51.446;6.792;2023-04-03T20:37:46;6.30;99.90
46492;DHT22;32206;51.446;6.792;2023-04-03T20:40:13;6.20;99.90
46492;DHT22;32206;51.446;6.792;2023-04-03T20:46:19;6.10;99.90
46492;DHT22;32206;51.446;6.792;2023-04-03T20:48:46;6.10;99.90
46492;DHT22;32206;51.446;6.792;2023-04-03T20:51:17;6.00;99.90
46492;DHT22;32206;51.446;6.792;2023-04-03T20:53:44;6.00;99.90
46492;DHT22;32206;51.446;6.792;2023-04-03T20:56:10;6.00;1.00
46492;DHT22;32206;51.446;6.792;2023-04-03T20:58:37;6.00;99.90
46492;DHT22;32206;51.446;6.792;2023-04-03T21:01:12;5.90;1.00
46492;DHT22;32206;51.446;6.792;2023-04-03T21:03:38;6.00;99.90
46492;DHT22;32206;51.446;6.792;2023-04-03T21:23:54;5.50;35.60
46492;DHT22;32206;51.446;6.792;2023-04-03T21:26:20;5.40;99.90
46492;DHT22;32206;51.446;6.792;2023-04-03T21:32:09;5.30;99.90
46492;DHT22;32206;51.446;6.792;2023-04-03T21:37:59;5.10;1.00
46492;DHT22;32206;51.446;6.792;2023-04-03T21:40:25;5.00;99.90
46492;DHT22;32206;51.446;6.792;2023-04-03T21:49:23;4.80;99.90
46492;DHT22;32206;51.446;6.792;2023-04-03T21:51:49;4.70;1.00
46492;DHT22;32206;51.446;6.792;2023-04-03T21:54:16;4.60;99.90
46492;DHT22;32206;51.446;6.792;2023-04-03T21:56:42;4.60;1.00
46492;DHT22;32206;51.446;6.792;2023-04-03T22:02:29;4.50;49.50
46492;DHT22;32206;51.446;6.792;2023-04-03T22:04:57;4.60;99.90
46492;DHT22;32206;51.446;6.792;2023-04-03T22:10:45;4.30;99.90
46492;DHT22;32206;51.446;6.792;2023-04-03T22:26:22;4.00;99.90
46492;DHT22;32206;51.446;6.792;2023-04-03T22:28:47;4.00;99.90
46492;DHT22;32206;51.446;6.792;2023-04-03T22:31:14;4.10;99.90
46492;DHT22;32206;51.446;6.792;2023-04-03T22:33:42;3.90;1.00
46492;DHT22;32206;51.446;6.792;2023-04-03T22:39:54;3.80;1.00
46492;DHT22;32206;51.446;6.792;2023-04-03T22:42:20;3.80;1.00
46492;DHT22;32206;51.446;6.792;2023-04-03T22:47:49;3.70;1.00
46492;DHT22;32206;51.446;6.792;2023-04-03T22:50:15;3.70;1.00
46492;DHT22;32206;51.446;6.792;2023-04-03T22:52:40;3.70;1.00